KHUA/HUA METAR and TAF weather

Enter ICAO airport designator
Station Type Date Time Source
KHUA METAR 2023/01/30 09:55 UTC NOAA

KHUA 300955Z AUTO 02003KT 10SM OVC007 11/11 A3010 RMK AO2 SLP195 T01070105


Station Type Date Time Source
KHUA Decoded METAR 2023/01/30 09:55 UTC NOAA

Station name not available
Jan 30, 2023 - 04:55 AM EST / 2023.01.30 0955 UTC
Wind: from the NNE (020 degrees) at 3 MPH (3 KT):0
Visibility: 10 mile(s):0
Sky conditions: overcast
Temperature: 51.3 F (10.7 C)
Dew Point: 50.9 F (10.5 C)
Relative Humidity: 98%
Pressure (altimeter): 30.1 in. Hg (1019 hPa)
ob: KHUA 300955Z AUTO 02003KT 10SM OVC007 11/11 A3010 RMK AO2 SLP195 T01070105
cycle: 10

Station Type Date Time Source
KHUA TAF 2023/01/27 20:07 UTC NOAA

TAF KHUA 272000Z 2720/2902 28010G15KT 9999 SKC QNH3021INS
BECMG 2722/2723 22009KT 9999 SKC QNH3021INS
BECMG 2802/2803 20006KT 9999 SKC WS020/23028KT 510202 QNH3026INS
BECMG 2804/2805 19006KT 9999 SKC QNH3026INS
BECMG 2819/2820 17010G15KT 9999 FEW055 QNH3025INS TX14/2820Z TN01/2813Z LAST NO
AMDS AFT 2800 NEXT 3012

Example: see airport list